Monroe, LA (71203)

10:00 AM CST on December 08, 2016 (GMT -0600)
Swartz | | Change Station

Elev 98 ft 32.56 °N, 92.02 °W | Updated 6 seconds ago

Overcast
Overcast
42.6 °F
Feels Like 43 °F
N
1.3
Wind Variable Wind from NE
Gusts 2.5 mph

Today
High -- | Low -- °F
--% Chance of Precip.
Yesterday
High -- | Low -- °F
Precip. -- in
Pressure 30.53 in
Visibility 10.0 miles
Clouds Scattered Clouds 5500 ft
Overcast 11000 ft
Windchill 43 °F
Dew Point 28 °F
Humidity 55%
Rainfall 0.00 in
Snow Depth Not available.
6:58 AM 5:02 PM
Waxing Gibbous, 64% visible
METAR KMLU 081553Z 02015KT 10SM SCT055 OVC110 06/M02 A3052 RMK AO2 SLP336 T00611022
Pressure 30.53 in
Visibility 10.0 miles
Clouds Scattered Clouds 5500 ft
Overcast 11000 ft
Windchill 43 °F
Dew Point 28 °F
Humidity 55%
Rainfall 0.00 in
Snow Depth Not available.
6:58 AM 5:02 PM
Waxing Gibbous, 64% visible
METAR KMLU 081553Z 02015KT 10SM SCT055 OVC110 06/M02 A3052 RMK AO2 SLP336 T00611022

10-Day Weather Forecast

Almanac

Astronomy

Dec. 08, 2016 Rise Set
Actual Time
Civil Twilight
Nautical Twilight
Astronomical Twilight
Moon
Length of Visible Light
Length of Day
Tomorrow will be .
, % of the Moon is Illuminated

Today's Extremes

State Highs State Lows

Community

WunderPhotos

Upload Photos

1,956,274 photos uploaded!

WunderBlog® & News

Nearby

Air Quality

  Air Quality AQ Index Pollutant
Not available.

Snow Depth

Station Depth Elevation

Earthquake Activity

City Distance Mag. Time & Date
Minimum magnitude displayed is 2.5.

Coastal Water Temperatures

Place Temperature

Stations

Nearby Weather Stations

Station Location Temp. Windchill Dew Point Humidity Wind Precip. Elev Updated Type
                   

Watches & Warnings

There are currently no watches in effect.